createdAt,value
2023-03-04T00:03:48.436Z,37.49
2023-03-04T00:07:49.741Z,38.27
2023-03-04T00:11:51.131Z,37.85
2023-03-04T00:15:52.573Z,38.18
2023-03-04T00:19:53.931Z,37.67
2023-03-04T00:23:55.384Z,38.13
2023-03-04T00:27:58.290Z,38.05
2023-03-04T00:31:59.814Z,38.13
2023-03-04T00:36:02.126Z,38.63
2023-03-04T00:40:03.949Z,38.22
2023-03-04T00:44:05.770Z,37.73
2023-03-04T00:48:07.158Z,38.08
2023-03-04T00:52:08.671Z,38.30
2023-03-04T00:56:10.007Z,37.63
2023-03-04T01:00:12.095Z,38.31
2023-03-04T01:04:13.469Z,38.07
2023-03-04T01:08:14.833Z,38.15
2023-03-04T01:12:16.162Z,38.38
2023-03-04T01:16:17.600Z,38.19
2023-03-04T01:20:19.374Z,38.05
2023-03-04T01:24:20.712Z,37.90
2023-03-04T01:28:22.194Z,38.17
2023-03-04T01:32:23.642Z,37.65
2023-03-04T01:36:24.955Z,37.54
2023-03-04T01:40:26.495Z,37.36
2023-03-04T01:44:28.170Z,37.67
2023-03-04T01:48:37.166Z,37.56
2023-03-04T01:52:40.783Z,37.54
2023-03-04T01:56:45.577Z,37.62
2023-03-04T02:00:47.129Z,37.50
2023-03-04T02:04:48.549Z,38.87
2023-03-04T02:08:49.953Z,37.42
2023-03-04T02:12:52.564Z,37.01
2023-03-04T02:16:53.933Z,37.14
2023-03-04T02:21:10.640Z,37.18
2023-03-04T02:25:18.409Z,37.18
2023-03-04T02:29:19.940Z,37.38
2023-03-04T02:33:21.287Z,36.66
2023-03-04T02:37:22.702Z,36.78
2023-03-04T02:41:26.211Z,36.95
2023-03-04T02:45:40.627Z,36.78
2023-03-04T02:49:42.091Z,37.21
2023-03-04T02:53:43.530Z,37.07
2023-03-04T02:57:44.942Z,37.14
2023-03-04T03:01:46.658Z,36.62
2023-03-04T03:05:48.383Z,36.72
2023-03-04T03:09:49.795Z,36.22
2023-03-04T03:13:51.123Z,36.16
2023-03-04T03:17:52.725Z,36.52
2023-03-04T03:21:54.097Z,36.53
2023-03-04T03:25:55.406Z,36.03
2023-03-04T03:29:56.843Z,36.30
2023-03-04T03:34:01.342Z,36.88
2023-03-04T03:38:02.655Z,36.59
2023-03-04T03:42:04.201Z,36.71
2023-03-04T03:46:05.659Z,37.59
2023-03-04T03:50:07.784Z,36.91
2023-03-04T03:54:09.701Z,36.54
2023-03-04T03:58:11.080Z,36.28
2023-03-04T04:02:12.587Z,36.87
2023-03-04T04:06:13.980Z,37.14
2023-03-04T04:10:15.587Z,36.71
2023-03-04T04:14:17.057Z,36.34
2023-03-04T04:18:18.535Z,36.57
2023-03-04T04:22:20.818Z,36.86
2023-03-04T04:26:22.220Z,36.92
2023-03-04T04:30:23.684Z,36.68
2023-03-04T04:34:25.838Z,36.83
2023-03-04T04:38:27.501Z,36.85
2023-03-04T04:42:28.888Z,36.69
2023-03-04T04:46:30.281Z,37.09
2023-03-04T04:50:33.056Z,36.84
2023-03-04T04:54:34.499Z,36.69
2023-03-04T04:58:36.967Z,36.39
2023-03-04T05:02:38.538Z,36.36
2023-03-04T05:06:40.162Z,36.69
2023-03-04T05:10:41.430Z,36.31
2023-03-04T05:14:42.725Z,36.57
2023-03-04T05:18:44.156Z,35.95
2023-03-04T05:22:45.597Z,35.87
2023-03-04T05:26:47.446Z,36.03
2023-03-04T05:30:49.365Z,35.94
2023-03-04T05:34:50.773Z,36.05
2023-03-04T05:38:52.023Z,36.30
2023-03-04T05:42:53.738Z,36.15
2023-03-04T05:46:55.327Z,35.63
2023-03-04T05:50:58.894Z,35.80
2023-03-04T05:55:00.253Z,36.21
2023-03-04T05:59:01.683Z,36.32
2023-03-04T06:03:03.242Z,35.55
2023-03-04T06:07:04.620Z,35.62
2023-03-04T06:11:06.419Z,36.01
2023-03-04T06:15:10.082Z,35.87
2023-03-04T06:19:11.427Z,36.40
2023-03-04T06:23:12.814Z,36.73
2023-03-04T06:27:14.103Z,35.94
2023-03-04T06:31:15.474Z,36.06
2023-03-04T06:35:17.414Z,36.43
2023-03-04T06:39:18.762Z,36.86
2023-03-04T06:43:20.704Z,36.24
2023-03-04T06:47:22.169Z,36.96
2023-03-04T06:51:23.457Z,36.52
2023-03-04T06:55:25.066Z,36.49
2023-03-04T06:59:26.515Z,36.77
2023-03-04T07:03:27.846Z,36.57
2023-03-04T07:07:29.227Z,36.35
2023-03-04T07:11:30.575Z,36.61
2023-03-04T07:15:32.132Z,36.88
2023-03-04T07:19:33.497Z,36.79
2023-03-04T07:23:35.659Z,37.36
2023-03-04T07:27:38.504Z,36.61
2023-03-04T07:31:39.870Z,36.95
2023-03-04T07:35:42.115Z,36.63
2023-03-04T07:39:43.515Z,36.13
2023-03-04T07:43:45.183Z,36.56
2023-03-04T07:47:47.151Z,35.75
2023-03-04T07:51:48.466Z,36.30
2023-03-04T07:55:49.905Z,36.36
2023-03-04T07:59:51.248Z,36.21
2023-03-04T08:03:52.798Z,35.56
2023-03-04T08:07:57.807Z,35.48
2023-03-04T08:11:59.239Z,36.34
2023-03-04T08:16:01.146Z,36.32
2023-03-04T08:20:02.512Z,36.82
2023-03-04T08:24:08.155Z,36.21
2023-03-04T08:28:10.797Z,36.04
2023-03-04T08:32:12.275Z,36.62
2023-03-04T08:36:15.038Z,35.89
2023-03-04T08:40:16.537Z,36.43
2023-03-04T08:44:18.003Z,36.70
2023-03-04T08:48:19.881Z,36.08
2023-03-04T08:52:21.352Z,36.91
2023-03-04T08:56:23.079Z,36.67
2023-03-04T09:00:24.435Z,37.96
2023-03-04T09:04:25.811Z,37.83
2023-03-04T09:08:27.164Z,37.66
2023-03-04T09:12:28.577Z,37.53
2023-03-04T09:16:30.021Z,36.88
2023-03-04T09:20:32.113Z,36.33
2023-03-04T09:24:33.514Z,36.83
2023-03-04T09:28:34.879Z,37.08
2023-03-04T09:32:36.891Z,36.98
2023-03-04T09:36:38.453Z,36.59
2023-03-04T09:40:48.024Z,37.61
2023-03-04T09:44:49.483Z,37.28
2023-03-04T09:48:52.833Z,35.80
2023-03-04T09:53:04.133Z,34.91
2023-03-04T09:57:30.882Z,34.38
2023-03-04T10:01:38.383Z,35.32
2023-03-04T10:05:53.187Z,35.71
2023-03-04T10:10:01.694Z,35.92
2023-03-04T10:14:21.272Z,35.29
2023-03-04T10:18:30.086Z,35.06
2023-03-04T10:22:56.235Z,34.25
2023-03-04T10:27:06.990Z,34.86
2023-03-04T10:31:08.324Z,35.90
2023-03-04T10:35:12.234Z,36.25
2023-03-04T10:39:18.506Z,37.67
2023-03-04T10:43:21.626Z,36.97
2023-03-04T10:47:24.822Z,36.16
2023-03-04T10:51:29.548Z,35.53
2023-03-04T10:55:43.752Z,34.46
2023-03-04T10:59:46.106Z,35.04
2023-03-04T11:03:49.747Z,35.47
2023-03-04T11:08:00.903Z,36.33
2023-03-04T11:12:09.713Z,37.62
2023-03-04T11:16:32.109Z,36.05
2023-03-04T11:20:42.439Z,34.52
2023-03-04T11:24:44.437Z,34.38
2023-03-04T11:29:14.918Z,34.06
2023-03-04T11:33:46.039Z,34.35
2023-03-04T11:37:54.865Z,34.42
2023-03-04T11:42:13.522Z,34.33
2023-03-04T11:46:38.222Z,34.65
2023-03-04T11:50:53.259Z,35.21
2023-03-04T11:55:22.157Z,34.26
2023-03-04T11:59:51.318Z,35.57
2023-03-04T12:04:07.278Z,35.71
2023-03-04T12:08:21.669Z,35.56
2023-03-04T12:12:22.916Z,35.24
2023-03-04T12:16:51.566Z,35.02
2023-03-04T12:21:27.399Z,35.11
2023-03-04T12:25:43.134Z,34.31
2023-03-04T12:30:06.913Z,33.82
2023-03-04T12:34:31.739Z,33.47
2023-03-04T12:38:52.946Z,33.26
2023-03-04T12:43:41.418Z,33.92
2023-03-04T12:48:00.330Z,33.55
2023-03-04T12:52:13.350Z,33.46
2023-03-04T12:56:39.827Z,33.07
2023-03-04T13:00:53.452Z,33.73
2023-03-04T13:05:06.215Z,33.96
2023-03-04T13:09:18.373Z,32.41
2023-03-04T13:14:07.226Z,33.26
2023-03-04T13:18:27.103Z,34.09
2023-03-04T13:22:40.761Z,33.62
2023-03-04T13:26:42.074Z,34.26
2023-03-04T13:31:07.723Z,33.81
2023-03-04T13:35:49.088Z,33.02
2023-03-04T13:40:27.472Z,34.97
2023-03-04T13:44:56.909Z,34.28
2023-03-04T13:49:00.177Z,34.34
2023-03-04T13:53:40.169Z,34.73
2023-03-04T13:57:49.468Z,35.63
2023-03-04T14:01:56.783Z,35.33
2023-03-04T14:06:10.212Z,35.39
2023-03-04T14:10:11.660Z,35.58
2023-03-04T14:14:18.498Z,35.82
2023-03-04T14:18:20.096Z,36.47
2023-03-04T14:22:33.740Z,36.85
2023-03-04T14:26:35.239Z,35.65
2023-03-04T14:30:42.805Z,35.45
2023-03-04T14:34:49.930Z,36.47
2023-03-04T14:38:58.831Z,36.52
2023-03-04T14:43:05.427Z,36.62
2023-03-04T14:47:13.608Z,36.17
2023-03-04T14:51:29.521Z,35.94
2023-03-04T14:55:30.845Z,35.72
2023-03-04T14:59:35.190Z,35.75
2023-03-04T15:03:36.698Z,36.05
2023-03-04T15:07:39.370Z,36.90
2023-03-04T15:11:45.961Z,37.29
2023-03-04T15:15:48.662Z,37.26
2023-03-04T15:20:19.679Z,37.55
2023-03-04T15:24:21.497Z,37.39
2023-03-04T15:28:24.254Z,36.71
2023-03-04T15:32:26.781Z,36.45
2023-03-04T15:36:28.159Z,36.34
2023-03-04T15:40:35.852Z,37.40
2023-03-04T15:44:37.206Z,37.55
2023-03-04T15:48:38.559Z,38.08
2023-03-04T15:52:39.925Z,38.42
2023-03-04T15:56:41.372Z,38.02
2023-03-04T16:00:42.885Z,37.91
2023-03-04T16:04:44.328Z,38.47
2023-03-04T16:08:47.415Z,38.57
2023-03-04T16:12:49.092Z,39.37
2023-03-04T16:16:51.159Z,39.47
2023-03-04T16:20:53.088Z,39.74
2023-03-04T16:24:55.287Z,39.87
2023-03-04T16:28:56.649Z,39.72
2023-03-04T16:32:58.080Z,39.86
2023-03-04T16:37:05.301Z,39.75
2023-03-04T16:41:13.039Z,39.67
2023-03-04T16:45:19.906Z,41.00
2023-03-04T16:49:21.412Z,41.07
2023-03-04T16:53:33.636Z,42.01
2023-03-04T16:57:34.974Z,40.83
2023-03-04T17:01:37.051Z,41.82
2023-03-04T17:05:38.710Z,42.21
2023-03-04T17:09:40.381Z,43.13
2023-03-04T17:13:41.708Z,42.46
2023-03-04T17:17:44.179Z,42.40
2023-03-04T17:21:45.593Z,43.10
2023-03-04T17:25:55.775Z,42.73
2023-03-04T17:29:57.195Z,42.30
2023-03-04T17:33:58.550Z,42.02
2023-03-04T17:37:59.848Z,43.08
2023-03-04T17:42:01.181Z,42.30
2023-03-04T17:46:09.097Z,42.14
2023-03-04T17:50:11.227Z,41.41
2023-03-04T17:54:12.620Z,41.67
2023-03-04T17:58:13.931Z,41.66
2023-03-04T18:02:16.112Z,41.69
2023-03-04T18:06:18.317Z,41.06
2023-03-04T18:10:19.945Z,41.25
2023-03-04T18:14:21.368Z,40.77
2023-03-04T18:18:23.951Z,40.32
2023-03-04T18:22:25.259Z,40.34
2023-03-04T18:26:27.250Z,40.18
2023-03-04T18:30:28.650Z,39.98
2023-03-04T18:34:30.011Z,39.54
2023-03-04T18:38:31.733Z,40.44
2023-03-04T18:42:33.257Z,39.44
2023-03-04T18:46:45.581Z,39.25
2023-03-04T18:50:46.917Z,39.15
2023-03-04T18:54:48.272Z,38.96
2023-03-04T18:58:51.365Z,38.57
2023-03-04T19:03:07.188Z,39.00
2023-03-04T19:07:09.791Z,38.23
2023-03-04T19:11:11.171Z,37.55
2023-03-04T19:15:13.703Z,38.15
2023-03-04T19:19:15.628Z,37.61
2023-03-04T19:23:17.659Z,37.88
2023-03-04T19:27:19.252Z,37.64
2023-03-04T19:31:20.586Z,37.47
2023-03-04T19:35:21.933Z,37.92
2023-03-04T19:39:23.313Z,38.09
2023-03-04T19:43:24.699Z,37.83
2023-03-04T19:47:26.008Z,38.13
2023-03-04T19:51:28.885Z,37.61
2023-03-04T19:55:30.549Z,38.10
2023-03-04T19:59:32.090Z,37.53
2023-03-04T20:03:33.701Z,37.60
2023-03-04T20:07:35.057Z,37.27
2023-03-04T20:11:44.293Z,37.43
2023-03-04T20:15:52.276Z,36.42
2023-03-04T20:19:53.681Z,37.29
2023-03-04T20:23:55.050Z,37.41
2023-03-04T20:27:57.443Z,37.08
2023-03-04T20:31:59.282Z,36.44
2023-03-04T20:36:00.921Z,36.90
2023-03-04T20:40:02.296Z,36.44
2023-03-04T20:44:04.811Z,36.25
2023-03-04T20:48:06.433Z,36.16
2023-03-04T20:52:07.905Z,35.98
2023-03-04T20:56:09.280Z,36.05
2023-03-04T21:00:11.315Z,36.07
2023-03-04T21:04:12.694Z,36.24
2023-03-04T21:08:14.170Z,35.86
2023-03-04T21:12:15.682Z,36.18
2023-03-04T21:16:17.279Z,36.19
2023-03-04T21:20:18.651Z,36.50
2023-03-04T21:24:22.806Z,36.54
2023-03-04T21:28:25.222Z,35.78
2023-03-04T21:32:27.002Z,35.21
2023-03-04T21:36:28.559Z,35.49
2023-03-04T21:40:29.898Z,35.66
2023-03-04T21:44:45.138Z,36.03
2023-03-04T21:48:49.452Z,35.51
2023-03-04T21:52:51.809Z,36.34
2023-03-04T21:56:53.180Z,36.64
2023-03-04T22:00:54.735Z,37.32
2023-03-04T22:04:56.089Z,37.25
2023-03-04T22:08:57.454Z,37.62
2023-03-04T22:12:58.911Z,37.83
2023-03-04T22:17:00.341Z,36.69
2023-03-04T22:21:10.583Z,36.74
2023-03-04T22:25:11.950Z,37.36
2023-03-04T22:29:13.306Z,37.09
2023-03-04T22:33:14.641Z,36.99
2023-03-04T22:37:15.940Z,37.19
2023-03-04T22:41:19.218Z,36.24
2023-03-04T22:45:21.553Z,36.59
2023-03-04T22:49:22.873Z,37.73
2023-03-04T22:53:25.987Z,36.99
2023-03-04T22:57:27.574Z,37.46
2023-03-04T23:01:28.994Z,38.03
2023-03-04T23:05:30.466Z,37.75
2023-03-04T23:09:31.847Z,38.78
2023-03-04T23:13:33.739Z,37.75
2023-03-04T23:17:35.837Z,38.25
2023-03-04T23:21:38.019Z,38.39
2023-03-04T23:25:39.434Z,38.23
2023-03-04T23:29:40.868Z,38.39
2023-03-04T23:33:43.749Z,38.07
2023-03-04T23:37:45.193Z,38.32
2023-03-04T23:41:46.631Z,38.29
2023-03-04T23:45:47.989Z,37.44
2023-03-04T23:49:49.761Z,38.39
2023-03-04T23:53:51.355Z,37.88
2023-03-04T23:57:52.706Z,38.70
